Time;durP1;ratioP1;P1;durP2;ratioP2;P2;SDS_P1;SDS_P2;PMS_P1;PMS_P2;Temp;Humidity;BMP_temperature;BMP_pressure;BME280_temperature;BME280_humidity;BME280_pressure;Samples;Min_cycle;Max_cycle;Signal;HPM_P1;HPM_P2
2021/01/04 00:01:27;;;;;;;6.50;4.50;;;3.70;99.90;;;;;;5067805;28;20454;-68
2021/01/04 00:04:04;;;;;;;5.40;4.07;;;3.70;99.90;;;;;;5082722;28;20440;-68
2021/01/04 00:06:52;;;;;;;5.40;4.47;;;3.70;99.90;;;;;;5111470;28;20443;-69
2021/01/04 00:09:48;;;;;;;6.43;3.93;;;3.70;99.90;;;;;;5098687;28;20448;-69
2021/01/04 00:12:40;;;;;;;5.60;4.00;;;3.70;99.90;;;;;;5054615;28;20790;-70
2021/01/04 00:15:32;;;;;;;5.27;3.77;;;3.60;99.90;;;;;;5092832;28;20460;-70
2021/01/04 00:18:39;;;;;;;5.47;4.00;;;3.60;99.90;;;;;;5053415;28;20457;-71
2021/01/04 00:21:11;;;;;;;4.30;3.00;;;3.60;99.90;;;;;;5041466;28;20456;-69
2021/01/04 00:23:43;;;;;;;5.00;3.80;;;3.60;99.90;;;;;;5075411;28;20452;-69
2021/01/04 00:26:20;;;;;;;6.00;3.30;;;3.60;99.90;;;;;;5086487;28;20457;-68
2021/01/04 00:28:46;;;;;;;6.93;4.27;;;3.60;99.90;;;;;;5075059;27;20458;-69
2021/01/04 00:31:23;;;;;;;5.87;3.90;;;3.60;99.90;;;;;;5081653;28;20992;-70
2021/01/04 00:33:51;;;;;;;8.57;4.50;;;3.60;99.90;;;;;;5109522;28;20463;-69
2021/01/04 00:36:34;;;;;;;7.57;4.60;;;3.60;99.90;;;;;;5076121;28;20885;-69
2021/01/04 00:39:37;;;;;;;7.00;4.20;;;3.60;99.90;;;;;;5092856;28;20444;-69
2021/01/04 00:42:34;;;;;;;7.00;4.43;;;3.60;99.90;;;;;;5074066;28;20452;-69
2021/01/04 00:45:22;;;;;;;6.00;4.30;;;3.60;99.90;;;;;;5088019;28;20448;-69
2021/01/04 00:48:09;;;;;;;5.47;3.90;;;3.60;99.90;;;;;;5078691;27;20456;-69
2021/01/04 00:51:06;;;;;;;8.00;4.70;;;3.60;99.90;;;;;;5077034;28;21021;-69
2021/01/04 00:53:38;;;;;;;7.00;4.20;;;3.60;99.90;;;;;;5092095;28;20451;-68
2021/01/04 00:56:22;;;;;;;7.77;4.70;;;3.50;99.90;;;;;;5070187;27;20452;-68
2021/01/04 00:59:02;;;;;;;6.93;4.53;;;3.50;99.90;;;;;;5083541;28;20940;-69
2021/01/04 01:01:46;;;;;;;6.10;3.70;;;3.50;99.90;;;;;;5123614;27;20475;-69
2021/01/04 01:04:29;;;;;;;6.07;4.70;;;3.50;99.90;;;;;;5078104;28;20450;-68
2021/01/04 01:07:39;;;;;;;4.57;3.37;;;3.50;99.90;;;;;;5075933;28;20452;-69
2021/01/04 01:10:09;;;;;;;4.07;3.00;;;3.50;99.90;;;;;;5045256;28;20497;-69
2021/01/04 01:12:42;;;;;;;8.17;4.17;;;3.50;99.90;;;;;;5106593;28;20441;-68
2021/01/04 01:15:23;;;;;;;8.13;4.43;;;3.50;99.90;;;;;;5083232;28;20449;-69
2021/01/04 01:18:09;;;;;;;7.07;4.37;;;3.50;99.90;;;;;;5084744;28;20451;-68
2021/01/04 01:20:38;;;;;;;5.57;3.80;;;3.60;99.90;;;;;;5091661;28;20535;-70
2021/01/04 01:23:06;;;;;;;7.00;5.13;;;3.60;99.90;;;;;;5075625;28;20532;-69
2021/01/04 01:25:42;;;;;;;7.77;4.40;;;3.60;99.90;;;;;;5091637;28;20452;-68
2021/01/04 01:28:29;;;;;;;7.30;5.10;;;3.60;99.90;;;;;;5078723;28;20463;-70
2021/01/04 01:31:43;;;;;;;9.00;5.13;;;3.60;99.90;;;;;;5103811;28;20463;-68
2021/01/04 01:34:29;;;;;;;6.97;4.90;;;3.50;99.90;;;;;;5070803;28;21005;-71
2021/01/04 01:37:34;;;;;;;5.37;3.80;;;3.50;99.90;;;;;;5083379;28;20466;-69
2021/01/04 01:40:29;;;;;;;5.50;4.40;;;3.50;99.90;;;;;;5091230;28;20455;-71
2021/01/04 01:43:04;;;;;;;7.20;4.10;;;3.50;99.90;;;;;;5089422;28;20828;-71
2021/01/04 01:45:54;;;;;;;9.27;5.70;;;3.50;99.90;;;;;;5084619;28;20445;-68
2021/01/04 01:48:49;;;;;;;6.80;4.37;;;3.50;99.90;;;;;;5084397;28;20812;-70
2021/01/04 01:51:24;;;;;;;7.47;4.30;;;3.50;99.90;;;;;;5093239;28;20498;-72
2021/01/04 01:54:06;;;;;;;6.17;4.30;;;3.50;99.90;;;;;;5092443;28;20490;-72
2021/01/04 01:57:16;;;;;;;6.57;5.13;;;3.50;99.90;;;;;;5092703;28;20464;-70
2021/01/04 02:00:07;;;;;;;10.40;4.97;;;3.50;99.90;;;;;;5092403;28;20482;-68
2021/01/04 02:03:24;;;;;;;9.50;5.10;;;3.50;99.90;;;;;;5092291;28;20452;-72
2021/01/04 02:06:22;;;;;;;6.47;4.77;;;3.50;99.90;;;;;;5075401;28;20470;-72
2021/01/04 02:08:57;;;;;;;8.37;4.40;;;3.50;99.90;;;;;;5071548;28;20456;-72
2021/01/04 02:11:46;;;;;;;7.10;4.40;;;3.60;99.90;;;;;;5102173;28;20545;-71
2021/01/04 02:14:43;;;;;;;5.83;3.90;;;3.60;99.90;;;;;;5110874;28;20463;-71
2021/01/04 02:17:39;;;;;;;7.47;4.90;;;3.50;99.90;;;;;;5108813;28;20507;-72
2021/01/04 02:20:08;;;;;;;7.53;4.33;;;3.60;99.90;;;;;;5069135;28;20455;-70
2021/01/04 02:22:59;;;;;;;7.07;5.00;;;3.60;99.90;;;;;;5078236;28;20481;-71
2021/01/04 02:25:29;;;;;;;11.10;4.57;;;3.60;99.90;;;;;;5081611;28;20466;-71
2021/01/04 02:27:58;;;;;;;7.40;3.80;;;3.50;99.90;;;;;;5079177;28;20953;-70
2021/01/04 02:30:24;;;;;;;6.83;4.17;;;3.50;99.90;;;;;;5095765;28;20552;-71
2021/01/04 02:32:49;;;;;;;6.50;3.73;;;3.50;99.90;;;;;;5058707;28;20615;-70
2021/01/04 02:35:15;;;;;;;5.90;4.33;;;3.50;99.90;;;;;;5093246;28;20233;-71
2021/01/04 02:37:41;;;;;;;4.97;3.47;;;3.50;99.90;;;;;;5096038;28;20301;-72
2021/01/04 02:40:10;;;;;;;6.70;4.10;;;3.50;99.90;;;;;;5076280;28;20444;-71
2021/01/04 02:42:43;;;;;;;5.97;4.83;;;3.50;99.90;;;;;;5076613;28;20320;-72
2021/01/04 02:45:15;;;;;;;8.30;4.67;;;3.50;99.90;;;;;;5062564;28;20453;-72
2021/01/04 02:48:00;;;;;;;11.80;4.27;;;3.50;99.90;;;;;;5096255;28;20471;-70
2021/01/04 02:50:48;;;;;;;6.17;4.00;;;3.50;99.90;;;;;;5081282;28;20477;-72
2021/01/04 02:53:40;;;;;;;7.70;4.07;;;3.50;99.90;;;;;;5096368;28;20456;-71
2021/01/04 02:56:34;;;;;;;6.33;4.23;;;3.50;99.90;;;;;;5092758;28;20815;-71
2021/01/04 02:59:09;;;;;;;4.60;3.40;;;3.50;99.90;;;;;;5110269;28;20961;-71
2021/01/04 03:01:38;;;;;;;6.30;4.30;;;3.40;99.90;;;;;;5075518;28;20445;-69
2021/01/04 03:04:04;;;;;;;6.27;4.50;;;3.50;99.90;;;;;;5074838;28;21272;-72
2021/01/04 03:06:38;;;;;;;7.07;4.40;;;3.40;99.90;;;;;;5063482;28;20449;-68
2021/01/04 03:09:08;;;;;;;5.17;3.77;;;3.50;99.90;;;;;;5091598;27;20445;-69
2021/01/04 03:11:33;;;;;;;6.10;4.77;;;3.40;99.90;;;;;;5099551;27;20533;-72
2021/01/04 03:14:08;;;;;;;7.77;4.53;;;3.40;99.90;;;;;;5117168;27;20526;-71
2021/01/04 03:16:54;;;;;;;6.27;4.63;;;3.40;99.90;;;;;;5099978;27;20260;-71
2021/01/04 03:19:23;;;;;;;6.77;3.87;;;3.40;99.90;;;;;;5097909;27;20462;-71
2021/01/04 03:22:03;;;;;;;6.97;4.60;;;3.40;99.90;;;;;;5078857;28;20459;-71
2021/01/04 03:24:30;;;;;;;7.77;5.27;;;3.40;99.90;;;;;;5077778;28;20952;-71
2021/01/04 03:27:08;;;;;;;8.30;4.60;;;3.40;99.90;;;;;;5095563;28;20440;-71
2021/01/04 03:29:34;;;;;;;10.33;4.30;;;3.40;99.90;;;;;;5099390;28;20488;-71
2021/01/04 03:32:00;;;;;;;5.57;4.07;;;3.40;99.90;;;;;;5063087;28;20988;-71
2021/01/04 03:34:26;;;;;;;8.07;5.53;;;3.30;99.90;;;;;;5075779;28;20224;-71
2021/01/04 03:36:51;;;;;;;7.00;4.53;;;3.30;99.90;;;;;;5059444;28;20264;-71
2021/01/04 03:39:17;;;;;;;6.97;3.83;;;3.30;99.90;;;;;;5063881;28;20222;-72
2021/01/04 03:41:43;;;;;;;5.13;3.50;;;3.30;99.90;;;;;;5107236;28;20240;-71
2021/01/04 03:44:09;;;;;;;6.40;4.03;;;3.30;99.90;;;;;;5075417;27;20320;-71
2021/01/04 03:46:35;;;;;;;8.77;4.37;;;3.20;99.90;;;;;;5100034;27;20212;-70
2021/01/04 03:49:01;;;;;;;8.80;3.97;;;3.20;99.90;;;;;;5087468;27;20451;-71
2021/01/04 03:51:27;;;;;;;7.77;4.53;;;3.30;99.90;;;;;;5099291;27;20496;-71
2021/01/04 03:53:53;;;;;;;7.63;3.37;;;3.30;99.90;;;;;;5089853;28;20245;-71
2021/01/04 03:56:20;;;;;;;6.00;4.00;;;3.30;99.90;;;;;;5063799;28;20744;-71
2021/01/04 03:58:46;;;;;;;9.90;5.20;;;3.30;99.90;;;;;;5062404;28;20229;-71
2021/01/04 04:01:11;;;;;;;7.40;4.70;;;3.30;99.90;;;;;;5061976;28;20457;-71
2021/01/04 04:03:37;;;;;;;7.20;4.03;;;3.30;99.90;;;;;;5078898;28;20440;-71
2021/01/04 04:06:03;;;;;;;9.57;5.73;;;3.30;99.90;;;;;;5078999;28;20286;-71
2021/01/04 04:08:29;;;;;;;7.27;4.50;;;3.30;99.90;;;;;;5095576;28;20214;-71
2021/01/04 04:10:55;;;;;;;5.93;3.40;;;3.20;99.90;;;;;;5049559;28;20459;-71
2021/01/04 04:13:20;;;;;;;6.10;3.83;;;3.20;99.90;;;;;;5078195;28;20304;-71
2021/01/04 04:15:47;;;;;;;10.37;5.80;;;3.20;99.90;;;;;;5108247;27;20226;-71
2021/01/04 04:18:13;;;;;;;8.50;4.87;;;3.20;99.90;;;;;;5097896;27;20224;-72
2021/01/04 04:20:38;;;;;;;4.93;3.90;;;3.20;99.90;;;;;;5078529;28;20455;-70
2021/01/04 04:23:04;;;;;;;5.07;3.70;;;3.20;99.90;;;;;;5077972;28;20219;-71
2021/01/04 04:25:30;;;;;;;7.27;4.23;;;3.20;99.90;;;;;;5078829;28;20287;-71
2021/01/04 04:27:56;;;;;;;5.43;3.63;;;3.20;99.90;;;;;;5073699;28;20217;-70
2021/01/04 04:30:24;;;;;;;9.97;4.90;;;3.20;99.90;;;;;;5078455;28;20230;-72
2021/01/04 04:32:52;;;;;;;8.23;4.83;;;3.20;99.90;;;;;;5094363;28;20455;-72
2021/01/04 04:35:17;;;;;;;8.47;4.40;;;3.20;99.90;;;;;;5095217;28;20986;-72
2021/01/04 04:37:44;;;;;;;5.23;4.33;;;3.20;99.90;;;;;;5076935;28;20547;-70
2021/01/04 04:40:25;;;;;;;8.30;4.40;;;3.20;99.90;;;;;;5094653;28;20483;-71
2021/01/04 04:43:12;;;;;;;7.53;4.53;;;3.20;99.90;;;;;;5081031;28;20246;-72
2021/01/04 04:45:39;;;;;;;8.00;4.87;;;3.20;99.90;;;;;;5056893;28;20486;-70
2021/01/04 04:48:36;;;;;;;6.80;4.60;;;3.20;99.90;;;;;;5055904;28;20464;-70
2021/01/04 04:51:28;;;;;;;7.17;4.30;;;3.20;99.90;;;;;;5057804;28;20488;-68
2021/01/04 04:54:36;;;;;;;6.77;4.30;;;3.20;99.90;;;;;;5087125;28;20465;-71
2021/01/04 04:57:31;;;;;;;8.07;4.50;;;3.20;99.90;;;;;;5107214;28;20456;-71
2021/01/04 05:00:21;;;;;;;7.60;5.10;;;3.20;99.90;;;;;;5073576;28;20516;-72
2021/01/04 05:03:21;;;;;;;9.07;4.80;;;3.20;99.90;;;;;;5085079;28;20477;-71
2021/01/04 05:06:27;;;;;;;8.80;5.57;;;3.20;99.90;;;;;;5090948;27;20446;-71
2021/01/04 05:09:10;;;;;;;6.60;4.30;;;3.20;99.90;;;;;;5114522;27;20438;-69
2021/01/04 05:11:39;;;;;;;7.17;5.13;;;3.20;99.90;;;;;;5072798;28;20482;-71
2021/01/04 05:14:12;;;;;;;8.77;5.70;;;3.20;99.90;;;;;;5074474;28;20461;-70
2021/01/04 05:16:43;;;;;;;10.10;6.07;;;3.20;99.90;;;;;;5087413;28;20463;-71
2021/01/04 05:19:49;;;;;;;6.93;5.10;;;3.20;99.90;;;;;;5094703;28;20448;-71
2021/01/04 05:22:52;;;;;;;12.60;5.20;;;3.20;99.90;;;;;;5093587;28;20459;-71
2021/01/04 05:25:42;;;;;;;10.87;5.43;;;3.20;99.90;;;;;;5094330;28;20488;-71
2021/01/04 05:28:45;;;;;;;7.37;4.60;;;3.20;99.90;;;;;;5109478;28;20460;-71
2021/01/04 05:31:48;;;;;;;6.50;4.53;;;3.20;99.90;;;;;;5112028;28;20991;-72
2021/01/04 05:34:30;;;;;;;4.87;3.83;;;3.20;99.90;;;;;;5105527;28;20456;-71
2021/01/04 05:37:22;;;;;;;7.40;4.70;;;3.20;99.90;;;;;;5094290;28;20443;-70
2021/01/04 05:40:27;;;;;;;9.17;5.10;;;3.20;99.90;;;;;;5070996;28;20476;-70
2021/01/04 05:43:07;;;;;;;10.67;5.70;;;3.20;99.90;;;;;;5059453;28;20449;-72
2021/01/04 05:45:45;;;;;;;9.07;5.07;;;3.20;99.90;;;;;;5077001;28;20489;-71
2021/01/04 05:48:14;;;;;;;16.03;5.97;;;3.20;99.90;;;;;;5094606;28;20533;-71
2021/01/04 05:50:54;;;;;;;7.83;4.90;;;3.20;99.90;;;;;;5096938;28;20515;-71
2021/01/04 05:53:20;;;;;;;9.23;5.10;;;3.20;99.90;;;;;;5109910;27;20526;-72
2021/01/04 05:55:53;;;;;;;5.90;4.20;;;3.20;99.90;;;;;;5118311;27;20534;-71
2021/01/04 05:58:20;;;;;;;7.27;4.83;;;3.20;99.90;;;;;;5101122;28;20447;-71
2021/01/04 06:00:52;;;;;;;6.80;4.70;;;3.20;99.90;;;;;;5093048;27;20466;-69
2021/01/04 06:03:22;;;;;;;10.60;5.37;;;3.20;99.90;;;;;;5076802;28;21040;-69
2021/01/04 06:05:50;;;;;;;6.40;4.33;;;3.20;99.90;;;;;;5130928;27;20470;-69
2021/01/04 06:08:26;;;;;;;9.50;4.77;;;3.20;99.90;;;;;;5114747;27;20461;-69
2021/01/04 06:11:11;;;;;;;8.93;5.17;;;3.20;99.90;;;;;;5075427;28;20449;-69
2021/01/04 06:13:42;;;;;;;8.83;5.30;;;3.20;99.90;;;;;;5075644;28;20460;-71
2021/01/04 06:16:16;;;;;;;9.10;5.40;;;3.20;99.90;;;;;;5100819;27;20451;-69
2021/01/04 06:18:50;;;;;;;12.37;6.30;;;3.20;99.90;;;;;;5099432;27;20453;-69
2021/01/04 06:21:22;;;;;;;9.27;5.47;;;3.20;99.90;;;;;;5094327;27;20459;-71
2021/01/04 06:23:49;;;;;;;12.47;5.17;;;3.20;99.90;;;;;;5105095;27;20460;-72
2021/01/04 06:26:23;;;;;;;10.50;4.63;;;3.20;99.90;;;;;;5083090;27;20490;-70
2021/01/04 06:28:49;;;;;;;6.93;4.50;;;3.20;99.90;;;;;;5058723;28;20483;-69
2021/01/04 06:31:30;;;;;;;10.37;5.30;;;3.20;99.90;;;;;;5094907;28;21059;-69
2021/01/04 06:33:59;;;;;;;7.70;4.97;;;3.20;99.90;;;;;;5094328;28;20582;-68
2021/01/04 06:36:26;;;;;;;8.73;5.27;;;3.20;99.90;;;;;;5077521;28;20454;-69
2021/01/04 06:42:20;;;;;;;14.07;5.60;;;3.20;99.90;;;;;;5092674;28;20535;-69
2021/01/04 06:45:06;;;;;;;3.87;2.93;;;3.20;99.90;;;;;;5079117;27;21004;-70
2021/01/04 06:47:43;;;;;;;8.40;4.90;;;3.20;99.90;;;;;;5115473;27;20473;-69
2021/01/04 06:50:37;;;;;;;12.53;5.30;;;3.10;99.90;;;;;;5099502;28;20464;-69
2021/01/04 06:53:43;;;;;;;11.53;6.07;;;3.10;99.90;;;;;;5112025;28;20448;-69
2021/01/04 06:56:28;;;;;;;13.50;7.17;;;3.10;99.90;;;;;;5078493;28;20458;-69
2021/01/04 06:59:27;;;;;;;9.67;5.40;;;3.10;99.90;;;;;;5112471;28;20483;-70
2021/01/04 07:02:17;;;;;;;11.63;5.93;;;3.10;99.90;;;;;;5093920;28;20448;-69
2021/01/04 07:05:21;;;;;;;9.67;5.23;;;3.10;99.90;;;;;;5097448;27;20448;-70
2021/01/04 07:07:58;;;;;;;11.80;6.17;;;3.10;99.90;;;;;;5062187;27;20517;-69
2021/01/04 07:10:45;;;;;;;11.37;6.87;;;3.10;99.90;;;;;;5096115;27;20447;-69
2021/01/04 07:13:20;;;;;;;13.63;5.83;;;3.20;99.90;;;;;;5106161;28;20456;-69
2021/01/04 07:15:53;;;;;;;12.30;5.63;;;3.10;99.90;;;;;;5094475;28;20460;-70
2021/01/04 07:18:32;;;;;;;14.77;7.57;;;3.10;99.90;;;;;;5094878;28;20514;-70
2021/01/04 07:21:22;;;;;;;11.40;6.43;;;3.10;99.90;;;;;;5112436;28;20513;-70
2021/01/04 07:24:02;;;;;;;9.80;5.37;;;3.10;99.90;;;;;;5111326;28;20452;-69
2021/01/04 07:26:39;;;;;;;12.30;6.87;;;3.20;99.90;;;;;;5094468;28;20483;-69
2021/01/04 07:29:42;;;;;;;7.67;5.00;;;3.20;99.90;;;;;;5111671;28;20948;-69
2021/01/04 07:32:43;;;;;;;14.30;5.70;;;3.20;99.90;;;;;;5094219;28;20490;-69
2021/01/04 07:35:20;;;;;;;9.00;4.90;;;3.20;99.90;;;;;;5101198;28;20464;-69
2021/01/04 07:38:23;;;;;;;9.93;6.03;;;3.10;99.90;;;;;;5093577;28;20454;-70
2021/01/04 07:40:52;;;;;;;9.33;6.57;;;3.10;99.90;;;;;;5073423;28;20523;-69
2021/01/04 07:43:47;;;;;;;8.93;5.40;;;3.10;99.90;;;;;;5073486;28;20452;-69
2021/01/04 07:46:46;;;;;;;12.07;6.30;;;3.10;99.90;;;;;;5125200;27;20554;-69
2021/01/04 07:49:26;;;;;;;6.37;4.70;;;3.10;99.90;;;;;;5104182;28;20456;-69
2021/01/04 07:52:15;;;;;;;9.87;5.27;;;3.10;99.90;;;;;;5076840;28;20488;-69
2021/01/04 07:55:17;;;;;;;11.57;5.37;;;3.10;99.90;;;;;;5047383;28;20459;-70
2021/01/04 07:57:58;;;;;;;10.10;5.53;;;3.10;99.90;;;;;;5111432;28;20456;-69
2021/01/04 08:01:04;;;;;;;11.17;5.80;;;3.10;99.90;;;;;;5093951;28;21039;-69
2021/01/04 08:03:30;;;;;;;10.57;6.30;;;3.10;99.90;;;;;;5091842;28;20459;-69
2021/01/04 08:06:32;;;;;;;7.50;4.70;;;3.10;99.90;;;;;;5072695;28;20503;-70
2021/01/04 08:09:16;;;;;;;9.93;5.03;;;3.10;99.90;;;;;;5106624;28;20218;-69
2021/01/04 08:12:02;;;;;;;12.57;5.80;;;3.10;99.90;;;;;;5092143;28;20460;-69
2021/01/04 08:14:43;;;;;;;8.70;6.60;;;3.10;99.90;;;;;;5107057;27;20459;-69
2021/01/04 08:17:13;;;;;;;7.40;4.87;;;3.10;99.90;;;;;;5113923;27;20469;-69
2021/01/04 08:19:40;;;;;;;10.87;5.47;;;3.10;99.90;;;;;;5131558;27;20465;-69
2021/01/04 08:22:32;;;;;;;6.50;4.67;;;3.10;99.90;;;;;;5065671;28;20506;-69
2021/01/04 08:25:10;;;;;;;11.77;5.93;;;3.20;99.90;;;;;;5066843;28;20825;-69
2021/01/04 08:27:56;;;;;;;10.37;5.93;;;3.20;99.90;;;;;;5072766;28;20460;-69
2021/01/04 08:30:30;;;;;;;9.60;5.10;;;3.20;99.90;;;;;;5048795;28;20460;-69
2021/01/04 08:33:25;;;;;;;13.47;6.50;;;3.20;99.90;;;;;;5072599;28;20451;-69
2021/01/04 08:35:52;;;;;;;12.23;6.27;;;3.20;99.90;;;;;;5097753;28;20451;-69
2021/01/04 08:38:35;;;;;;;11.30;6.43;;;3.20;99.90;;;;;;5093684;28;20456;-69
2021/01/04 08:41:19;;;;;;;10.53;5.87;;;3.20;99.90;;;;;;5113934;27;20456;-70
2021/01/04 08:43:48;;;;;;;10.20;6.70;;;3.20;99.90;;;;;;5117892;27;20483;-70
2021/01/04 08:46:22;;;;;;;9.57;5.60;;;3.20;99.90;;;;;;5092277;28;20547;-71
2021/01/04 08:48:53;;;;;;;10.97;6.37;;;3.20;99.90;;;;;;5112885;27;20444;-69
2021/01/04 08:51:30;;;;;;;6.87;4.67;;;3.20;99.90;;;;;;5097770;28;20524;-70
2021/01/04 08:54:17;;;;;;;12.90;5.93;;;3.30;99.90;;;;;;5075540;28;20460;-69
2021/01/04 08:56:47;;;;;;;10.90;6.20;;;3.20;99.90;;;;;;5110016;28;20456;-69
2021/01/04 08:59:19;;;;;;;9.63;5.67;;;3.20;99.90;;;;;;5076253;28;21006;-70
2021/01/04 09:01:57;;;;;;;9.63;5.57;;;3.20;99.90;;;;;;5091553;28;20448;-69
2021/01/04 09:04:38;;;;;;;15.87;6.97;;;3.20;99.90;;;;;;5076010;28;20458;-69
2021/01/04 09:07:22;;;;;;;18.90;6.57;;;3.20;99.90;;;;;;5092392;28;20444;-69
2021/01/04 09:10:14;;;;;;;12.77;7.43;;;3.20;99.90;;;;;;5065823;27;20479;-69
2021/01/04 09:12:46;;;;;;;15.60;6.33;;;3.30;99.90;;;;;;5095330;27;20455;-69
2021/01/04 09:15:13;;;;;;;10.30;5.33;;;3.30;99.90;;;;;;5076925;28;20452;-70
2021/01/04 09:18:00;;;;;;;13.60;7.40;;;3.30;99.90;;;;;;5108236;28;20453;-69
2021/01/04 09:20:38;;;;;;;11.23;6.27;;;3.30;99.90;;;;;;5092083;28;20448;-69
2021/01/04 09:23:21;;;;;;;13.23;6.70;;;3.30;99.90;;;;;;5091909;28;20440;-69
2021/01/04 09:25:58;;;;;;;12.17;7.33;;;3.30;99.90;;;;;;5091596;28;20452;-70
2021/01/04 09:28:24;;;;;;;14.57;7.57;;;3.30;99.90;;;;;;5109044;28;20452;-69
2021/01/04 09:30:52;;;;;;;13.17;7.07;;;3.30;99.90;;;;;;5074452;28;21084;-69
2021/01/04 09:33:22;;;;;;;13.30;5.90;;;3.30;99.90;;;;;;5091717;28;20467;-69
2021/01/04 09:36:15;;;;;;;11.50;6.33;;;3.20;99.90;;;;;;5090925;28;20471;-69
2021/01/04 09:38:40;;;;;;;9.57;6.50;;;3.20;99.90;;;;;;5072326;28;20988;-71
2021/01/04 09:41:09;;;;;;;10.70;6.03;;;3.20;99.90;;;;;;5056331;28;20494;-71
2021/01/04 09:43:36;;;;;;;11.97;6.20;;;3.20;99.90;;;;;;5090711;28;20259;-70
2021/01/04 09:46:20;;;;;;;9.23;6.07;;;3.30;99.90;;;;;;5091181;28;20524;-70
2021/01/04 09:49:08;;;;;;;13.47;7.47;;;3.20;99.90;;;;;;5072130;28;20449;-70
2021/01/04 09:51:41;;;;;;;13.80;6.40;;;3.20;99.90;;;;;;5110692;28;20608;-71
2021/01/04 09:54:12;;;;;;;12.87;7.00;;;3.30;99.90;;;;;;5095480;28;20457;-70
2021/01/04 09:56:40;;;;;;;14.47;7.37;;;3.30;99.90;;;;;;5090111;28;20460;-71
2021/01/04 09:59:20;;;;;;;13.27;7.33;;;3.30;99.90;;;;;;5090941;28;20473;-70
2021/01/04 10:02:26;;;;;;;8.97;6.30;;;3.30;99.90;;;;;;5088501;28;20458;-70
2021/01/04 10:04:53;;;;;;;8.60;5.80;;;3.30;99.90;;;;;;5104197;28;20478;-70
2021/01/04 10:07:27;;;;;;;12.50;6.37;;;3.30;99.90;;;;;;5078308;28;20444;-70
2021/01/04 10:09:54;;;;;;;14.00;7.27;;;3.30;99.90;;;;;;5073787;28;20979;-70
2021/01/04 10:12:23;;;;;;;10.90;6.70;;;3.20;99.90;;;;;;5057987;28;20468;-71
2021/01/04 10:14:54;;;;;;;15.63;7.10;;;3.20;99.90;;;;;;5072774;28;20496;-71
2021/01/04 10:17:25;;;;;;;11.07;6.70;;;3.20;99.90;;;;;;5070463;28;20468;-70
2021/01/04 10:19:59;;;;;;;11.07;6.70;;;3.20;99.90;;;;;;5076937;28;20841;-70
2021/01/04 10:22:30;;;;;;;12.63;5.87;;;3.20;99.90;;;;;;5074820;28;20492;-70
2021/01/04 10:25:18;;;;;;;7.80;5.53;;;3.20;99.90;;;;;;5086868;28;20451;-70
2021/01/04 10:27:44;;;;;;;10.30;6.57;;;3.20;99.90;;;;;;5088756;28;20501;-70
2021/01/04 10:30:12;;;;;;;13.43;5.50;;;3.20;99.90;;;;;;5087917;28;20537;-70
2021/01/04 10:32:40;;;;;;;16.07;7.10;;;3.20;99.90;;;;;;5086899;28;20460;-71
2021/01/04 10:35:19;;;;;;;6.33;4.83;;;3.20;99.90;;;;;;5094758;28;20460;-71
2021/01/04 10:37:45;;;;;;;9.63;6.53;;;3.20;99.90;;;;;;5084992;27;20467;-70
2021/01/04 10:40:14;;;;;;;9.93;5.13;;;3.20;99.90;;;;;;5085938;27;21065;-71
2021/01/04 10:42:42;;;;;;;10.23;5.80;;;3.30;99.90;;;;;;5086209;28;20285;-70
2021/01/04 10:45:20;;;;;;;14.13;5.90;;;3.30;99.90;;;;;;5091421;28;20458;-71
2021/01/04 10:47:48;;;;;;;11.13;6.20;;;3.30;99.90;;;;;;5069227;28;20804;-71
2021/01/04 10:50:18;;;;;;;13.13;6.60;;;3.30;99.90;;;;;;5096217;28;20488;-69
2021/01/04 10:52:55;;;;;;;10.47;6.37;;;3.20;99.90;;;;;;5096318;27;20457;-69
2021/01/04 10:55:26;;;;;;;12.30;6.83;;;3.30;99.90;;;;;;5064876;28;21145;-70
2021/01/04 10:57:56;;;;;;;13.30;6.40;;;3.20;99.90;;;;;;5092085;28;20470;-70
2021/01/04 11:00:30;;;;;;;11.37;7.03;;;3.30;99.90;;;;;;5113567;27;20453;-70
2021/01/04 11:03:06;;;;;;;14.23;6.50;;;3.30;99.90;;;;;;5091885;28;20518;-69
2021/01/04 11:05:38;;;;;;;10.43;6.20;;;3.30;99.90;;;;;;5098035;27;20469;-70
2021/01/04 11:08:10;;;;;;;13.07;6.23;;;3.30;99.90;;;;;;5091308;28;20527;-70
2021/01/04 11:10:36;;;;;;;10.67;6.67;;;3.30;99.90;;;;;;5072269;28;20875;-71
2021/01/04 11:13:01;;;;;;;8.60;5.20;;;3.30;99.90;;;;;;5074140;28;20463;-70
2021/01/04 11:15:34;;;;;;;11.50;6.13;;;3.30;99.90;;;;;;5073372;28;20543;-69
2021/01/04 11:18:06;;;;;;;16.43;6.10;;;3.30;99.90;;;;;;5074523;28;20443;-71
2021/01/04 11:20:35;;;;;;;13.67;6.67;;;3.30;99.90;;;;;;5100554;28;20467;-71
2021/01/04 11:23:13;;;;;;;11.77;6.07;;;3.30;99.90;;;;;;5107865;27;20450;-70
2021/01/04 11:25:41;;;;;;;14.43;6.30;;;3.30;99.90;;;;;;5094530;27;20466;-70
2021/01/04 11:28:07;;;;;;;8.77;5.90;;;3.30;99.90;;;;;;5091357;28;20458;-69
2021/01/04 11:30:33;;;;;;;12.70;6.20;;;3.30;99.90;;;;;;5074342;28;20454;-69
2021/01/04 11:33:00;;;;;;;12.47;6.60;;;3.30;99.90;;;;;;5095543;27;20449;-71
2021/01/04 11:35:30;;;;;;;14.37;6.53;;;3.30;99.90;;;;;;5084362;27;20217;-71
2021/01/04 11:37:56;;;;;;;14.53;7.63;;;3.30;99.90;;;;;;5078118;28;21006;-70
2021/01/04 11:40:22;;;;;;;11.70;6.63;;;3.30;99.90;;;;;;5082251;27;20471;-70
2021/01/04 11:42:48;;;;;;;10.10;5.70;;;3.30;99.90;;;;;;5090276;27;20482;-70
2021/01/04 11:45:17;;;;;;;14.00;7.40;;;3.40;99.90;;;;;;5084020;28;20228;-70
2021/01/04 11:47:43;;;;;;;10.83;6.67;;;3.40;99.90;;;;;;5072828;28;20265;-71
2021/01/04 11:50:10;;;;;;;11.83;6.20;;;3.40;99.90;;;;;;5091845;28;20453;-71
2021/01/04 11:52:37;;;;;;;11.60;7.57;;;3.40;99.90;;;;;;5072996;28;20476;-71
2021/01/04 11:55:09;;;;;;;15.27;6.37;;;3.40;99.90;;;;;;5085550;28;20857;-70
2021/01/04 11:57:35;;;;;;;10.57;5.60;;;3.40;99.90;;;;;;5085025;28;20479;-70
2021/01/04 12:00:01;;;;;;;12.73;6.40;;;3.40;99.90;;;;;;5104527;27;20477;-70
2021/01/04 12:02:28;;;;;;;8.50;5.53;;;3.40;99.90;;;;;;5073656;28;20496;-70
2021/01/04 12:04:53;;;;;;;10.87;6.17;;;3.40;99.90;;;;;;5070299;28;20220;-71
2021/01/04 12:07:19;;;;;;;12.30;6.87;;;3.40;99.90;;;;;;5055829;28;20502;-71
2021/01/04 12:09:45;;;;;;;10.33;6.10;;;3.40;99.90;;;;;;5093476;27;20224;-70
2021/01/04 12:12:11;;;;;;;9.40;5.10;;;3.50;99.90;;;;;;5086170;28;20222;-70
2021/01/04 12:14:36;;;;;;;11.53;5.70;;;3.50;99.90;;;;;;5062985;28;20249;-69
2021/01/04 12:17:05;;;;;;;9.87;5.77;;;3.50;99.90;;;;;;5076044;27;20471;-71
2021/01/04 12:19:31;;;;;;;11.20;6.30;;;3.50;99.90;;;;;;5094920;28;20249;-70
2021/01/04 12:22:04;;;;;;;8.13;5.60;;;3.50;99.90;;;;;;5076440;27;20460;-70
2021/01/04 12:24:34;;;;;;;10.80;6.10;;;3.50;99.90;;;;;;5076552;28;20486;-71
2021/01/04 12:27:04;;;;;;;10.97;5.77;;;3.50;99.90;;;;;;5071263;28;20487;-69
2021/01/04 12:29:30;;;;;;;12.10;6.93;;;3.50;99.90;;;;;;5075908;27;20581;-70
2021/01/04 12:31:56;;;;;;;12.60;5.53;;;3.50;99.90;;;;;;5079610;28;20460;-70
2021/01/04 12:34:22;;;;;;;13.17;5.87;;;3.40;99.90;;;;;;5100328;27;20475;-72
2021/01/04 12:36:48;;;;;;;13.43;6.70;;;3.50;99.90;;;;;;5099887;28;20488;-70
2021/01/04 12:39:13;;;;;;;10.83;6.07;;;3.40;99.90;;;;;;5078552;27;20734;-70
2021/01/04 12:41:42;;;;;;;12.73;6.30;;;3.40;99.90;;;;;;5106644;28;20241;-70
2021/01/04 12:44:10;;;;;;;14.83;6.03;;;3.40;99.90;;;;;;5075340;28;20587;-71
2021/01/04 12:46:42;;;;;;;13.03;7.50;;;3.40;99.90;;;;;;5056812;28;20558;-70
2021/01/04 12:49:08;;;;;;;9.53;7.03;;;3.50;99.90;;;;;;5088881;28;20467;-70
2021/01/04 12:51:34;;;;;;;13.90;5.90;;;3.50;99.90;;;;;;5092552;27;20555;-70
2021/01/04 12:53:59;;;;;;;12.93;6.50;;;3.50;99.90;;;;;;5077359;28;20304;-70
2021/01/04 12:56:25;;;;;;;10.33;5.73;;;3.50;99.90;;;;;;5099241;27;20228;-71
2021/01/04 12:58:51;;;;;;;8.77;4.93;;;3.50;99.90;;;;;;5093154;27;20214;-71
2021/01/04 13:01:17;;;;;;;11.17;5.63;;;3.50;99.90;;;;;;5051659;28;20289;-71
2021/01/04 13:03:44;;;;;;;9.67;5.10;;;3.50;99.90;;;;;;5059866;28;20210;-71
2021/01/04 13:06:18;;;;;;;11.27;6.40;;;3.50;99.90;;;;;;5092777;28;20464;-69
2021/01/04 13:08:44;;;;;;;11.00;5.70;;;3.50;99.90;;;;;;5109998;27;20459;-70
2021/01/04 13:11:09;;;;;;;11.17;6.33;;;3.50;99.90;;;;;;5070216;28;21039;-69
2021/01/04 13:13:35;;;;;;;11.70;6.10;;;3.50;99.90;;;;;;5082116;28;20220;-69
2021/01/04 13:16:02;;;;;;;10.80;6.70;;;3.50;99.90;;;;;;5093332;28;20702;-69
2021/01/04 13:18:27;;;;;;;18.57;6.30;;;3.50;99.90;;;;;;5070105;28;20449;-69
2021/01/04 13:20:53;;;;;;;11.53;6.10;;;3.50;99.90;;;;;;5096778;28;20443;-69
2021/01/04 13:23:19;;;;;;;10.43;6.33;;;3.50;99.90;;;;;;5109229;28;20708;-70
2021/01/04 13:25:44;;;;;;;11.63;6.17;;;3.60;99.90;;;;;;5078702;27;20225;-70
2021/01/04 13:28:10;;;;;;;10.00;5.80;;;3.50;99.90;;;;;;5108590;27;20221;-69
2021/01/04 13:30:37;;;;;;;11.67;6.17;;;3.50;99.90;;;;;;5078756;27;20585;-69
2021/01/04 13:33:23;;;;;;;13.70;6.70;;;3.50;99.90;;;;;;5094019;28;20285;-69
2021/01/04 13:35:49;;;;;;;8.50;5.73;;;3.50;99.90;;;;;;5105602;28;20539;-71
2021/01/04 13:38:16;;;;;;;8.00;5.23;;;3.50;99.90;;;;;;5090647;28;20468;-69
2021/01/04 13:40:41;;;;;;;12.27;6.33;;;3.50;99.90;;;;;;5048416;28;20231;-70
2021/01/04 13:43:07;;;;;;;10.47;6.30;;;3.50;99.90;;;;;;5080600;28;20445;-69
2021/01/04 13:45:33;;;;;;;11.97;6.33;;;3.50;99.90;;;;;;5055388;28;20245;-69